sensor_id;sensor_type;location;lat;lon;timestamp;P1;durP1;ratioP1;P2;durP2;ratioP2
11042;SDS011;5574;48.786;10.120;2023-05-10T00:01:47;1.52;;;1.42;;
11042;SDS011;5574;48.786;10.120;2023-05-10T00:04:13;1.48;;;1.38;;
11042;SDS011;5574;48.786;10.120;2023-05-10T00:06:40;1.77;;;1.40;;
11042;SDS011;5574;48.786;10.120;2023-05-10T00:09:07;1.10;;;1.10;;
11042;SDS011;5574;48.786;10.120;2023-05-10T00:11:33;1.05;;;0.95;;
11042;SDS011;5574;48.786;10.120;2023-05-10T00:14:01;0.77;;;0.77;;
11042;SDS011;5574;48.786;10.120;2023-05-10T00:16:28;1.23;;;1.17;;
11042;SDS011;5574;48.786;10.120;2023-05-10T00:18:55;2.13;;;1.17;;
11042;SDS011;5574;48.786;10.120;2023-05-10T00:21:22;1.10;;;1.10;;
11042;SDS011;5574;48.786;10.120;2023-05-10T00:23:48;1.20;;;1.20;;
11042;SDS011;5574;48.786;10.120;2023-05-10T00:26:15;0.80;;;0.80;;
11042;SDS011;5574;48.786;10.120;2023-05-10T00:28:42;1.20;;;1.10;;
11042;SDS011;5574;48.786;10.120;2023-05-10T00:31:10;1.73;;;0.90;;
11042;SDS011;5574;48.786;10.120;2023-05-10T00:33:37;0.85;;;0.85;;
11042;SDS011;5574;48.786;10.120;2023-05-10T00:36:04;2.60;;;1.13;;
11042;SDS011;5574;48.786;10.120;2023-05-10T00:38:32;1.80;;;1.40;;
11042;SDS011;5574;48.786;10.120;2023-05-10T00:40:59;1.00;;;1.00;;
11042;SDS011;5574;48.786;10.120;2023-05-10T00:43:25;1.00;;;1.00;;
11042;SDS011;5574;48.786;10.120;2023-05-10T00:45:52;1.17;;;1.08;;
11042;SDS011;5574;48.786;10.120;2023-05-10T00:48:20;0.90;;;0.90;;
11042;SDS011;5574;48.786;10.120;2023-05-10T00:50:48;3.22;;;1.10;;
11042;SDS011;5574;48.786;10.120;2023-05-10T00:53:14;0.90;;;0.90;;
11042;SDS011;5574;48.786;10.120;2023-05-10T00:55:41;0.68;;;0.68;;
11042;SDS011;5574;48.786;10.120;2023-05-10T00:58:08;0.80;;;0.80;;
11042;SDS011;5574;48.786;10.120;2023-05-10T01:00:35;0.70;;;0.70;;
11042;SDS011;5574;48.786;10.120;2023-05-10T01:03:03;0.70;;;0.45;;
11042;SDS011;5574;48.786;10.120;2023-05-10T01:05:32;0.40;;;0.40;;
11042;SDS011;5574;48.786;10.120;2023-05-10T01:07:58;0.50;;;0.50;;
11042;SDS011;5574;48.786;10.120;2023-05-10T01:10:25;1.13;;;0.40;;
11042;SDS011;5574;48.786;10.120;2023-05-10T01:15:32;0.40;;;0.40;;
11042;SDS011;5574;48.786;10.120;2023-05-10T01:17:59;0.20;;;0.20;;
11042;SDS011;5574;48.786;10.120;2023-05-10T01:20:26;0.30;;;0.30;;
11042;SDS011;5574;48.786;10.120;2023-05-10T01:23:13;0.30;;;0.30;;
11042;SDS011;5574;48.786;10.120;2023-05-10T01:34:42;0.70;;;0.38;;
11042;SDS011;5574;48.786;10.120;2023-05-10T01:37:15;0.65;;;0.65;;
11042;SDS011;5574;48.786;10.120;2023-05-10T01:39:47;0.70;;;0.55;;
11042;SDS011;5574;48.786;10.120;2023-05-10T01:42:17;2.70;;;0.50;;
11042;SDS011;5574;48.786;10.120;2023-05-10T01:44:49;0.32;;;0.30;;
11042;SDS011;5574;48.786;10.120;2023-05-10T01:47:25;0.35;;;0.35;;
11042;SDS011;5574;48.786;10.120;2023-05-10T01:49:59;0.15;;;0.15;;
11042;SDS011;5574;48.786;10.120;2023-05-10T01:52:30;0.05;;;0.05;;
11042;SDS011;5574;48.786;10.120;2023-05-10T01:55:00;0.20;;;0.20;;
11042;SDS011;5574;48.786;10.120;2023-05-10T01:57:31;0.08;;;0.08;;
11042;SDS011;5574;48.786;10.120;2023-05-10T01:59:59;0.20;;;0.20;;
11042;SDS011;5574;48.786;10.120;2023-05-10T02:02:29;0.20;;;0.20;;
11042;SDS011;5574;48.786;10.120;2023-05-10T02:04:59;0.32;;;0.32;;
11042;SDS011;5574;48.786;10.120;2023-05-10T02:07:26;0.80;;;0.20;;
11042;SDS011;5574;48.786;10.120;2023-05-10T02:09:54;0.22;;;0.20;;
11042;SDS011;5574;48.786;10.120;2023-05-10T02:12:22;0.22;;;0.22;;
11042;SDS011;5574;48.786;10.120;2023-05-10T02:14:50;0.75;;;0.10;;
11042;SDS011;5574;48.786;10.120;2023-05-10T02:17:18;0.10;;;0.10;;
11042;SDS011;5574;48.786;10.120;2023-05-10T02:19:47;0.10;;;0.10;;
11042;SDS011;5574;48.786;10.120;2023-05-10T02:22:15;0.17;;;0.15;;
11042;SDS011;5574;48.786;10.120;2023-05-10T02:24:43;0.05;;;0.03;;
11042;SDS011;5574;48.786;10.120;2023-05-10T02:27:12;0.85;;;0.32;;
11042;SDS011;5574;48.786;10.120;2023-05-10T02:29:41;0.20;;;0.17;;
11042;SDS011;5574;48.786;10.120;2023-05-10T02:32:08;0.05;;;0.00;;
11042;SDS011;5574;48.786;10.120;2023-05-10T02:34:37;1.45;;;0.20;;
11042;SDS011;5574;48.786;10.120;2023-05-10T02:37:06;0.10;;;0.10;;
11042;SDS011;5574;48.786;10.120;2023-05-10T02:39:33;0.10;;;0.10;;
11042;SDS011;5574;48.786;10.120;2023-05-10T02:42:00;1.00;;;0.10;;
11042;SDS011;5574;48.786;10.120;2023-05-10T02:44:28;0.28;;;0.13;;
11042;SDS011;5574;48.786;10.120;2023-05-10T02:46:56;2.92;;;0.13;;
11042;SDS011;5574;48.786;10.120;2023-05-10T02:49:23;0.10;;;0.10;;
11042;SDS011;5574;48.786;10.120;2023-05-10T02:51:51;0.40;;;0.00;;
11042;SDS011;5574;48.786;10.120;2023-05-10T02:54:26;0.20;;;0.20;;
11042;SDS011;5574;48.786;10.120;2023-05-10T02:56:56;0.10;;;0.10;;
11042;SDS011;5574;48.786;10.120;2023-05-10T02:59:25;1.45;;;0.28;;
11042;SDS011;5574;48.786;10.120;2023-05-10T03:01:52;0.40;;;0.28;;
11042;SDS011;5574;48.786;10.120;2023-05-10T03:04:19;1.65;;;0.50;;
11042;SDS011;5574;48.786;10.120;2023-05-10T03:06:46;0.40;;;0.40;;
11042;SDS011;5574;48.786;10.120;2023-05-10T03:09:13;0.75;;;0.45;;
11042;SDS011;5574;48.786;10.120;2023-05-10T03:11:47;1.05;;;0.80;;
11042;SDS011;5574;48.786;10.120;2023-05-10T03:14:25;0.60;;;0.60;;
11042;SDS011;5574;48.786;10.120;2023-05-10T03:17:04;0.85;;;0.70;;
11042;SDS011;5574;48.786;10.120;2023-05-10T03:19:36;1.85;;;0.80;;
11042;SDS011;5574;48.786;10.120;2023-05-10T03:22:10;0.98;;;0.98;;
11042;SDS011;5574;48.786;10.120;2023-05-10T03:24:38;1.83;;;1.00;;
11042;SDS011;5574;48.786;10.120;2023-05-10T03:27:08;1.40;;;1.02;;
11042;SDS011;5574;48.786;10.120;2023-05-10T03:29:36;1.00;;;1.00;;
11042;SDS011;5574;48.786;10.120;2023-05-10T03:32:04;0.73;;;0.73;;
11042;SDS011;5574;48.786;10.120;2023-05-10T03:34:31;0.77;;;0.77;;
11042;SDS011;5574;48.786;10.120;2023-05-10T03:36:57;1.48;;;0.80;;
11042;SDS011;5574;48.786;10.120;2023-05-10T03:39:24;1.38;;;1.10;;
11042;SDS011;5574;48.786;10.120;2023-05-10T03:41:51;0.70;;;0.70;;
11042;SDS011;5574;48.786;10.120;2023-05-10T03:44:19;6.72;;;1.10;;
11042;SDS011;5574;48.786;10.120;2023-05-10T03:46:45;2.55;;;0.85;;
11042;SDS011;5574;48.786;10.120;2023-05-10T03:49:12;0.80;;;0.80;;
11042;SDS011;5574;48.786;10.120;2023-05-10T03:51:39;0.98;;;0.93;;
11042;SDS011;5574;48.786;10.120;2023-05-10T03:54:05;0.93;;;0.85;;
11042;SDS011;5574;48.786;10.120;2023-05-10T03:56:32;1.52;;;0.88;;
11042;SDS011;5574;48.786;10.120;2023-05-10T03:58:59;1.02;;;1.00;;
11042;SDS011;5574;48.786;10.120;2023-05-10T04:01:27;1.30;;;1.20;;
11042;SDS011;5574;48.786;10.120;2023-05-10T04:03:54;2.55;;;1.20;;
11042;SDS011;5574;48.786;10.120;2023-05-10T04:06:21;0.98;;;0.98;;
11042;SDS011;5574;48.786;10.120;2023-05-10T04:08:48;1.05;;;1.00;;
11042;SDS011;5574;48.786;10.120;2023-05-10T04:11:14;0.98;;;0.98;;
11042;SDS011;5574;48.786;10.120;2023-05-10T04:13:41;1.70;;;0.93;;
11042;SDS011;5574;48.786;10.120;2023-05-10T04:16:09;1.20;;;1.20;;
11042;SDS011;5574;48.786;10.120;2023-05-10T04:18:37;0.95;;;0.95;;
11042;SDS011;5574;48.786;10.120;2023-05-10T04:21:04;1.10;;;1.10;;
11042;SDS011;5574;48.786;10.120;2023-05-10T04:23:36;1.33;;;1.10;;
11042;SDS011;5574;48.786;10.120;2023-05-10T04:26:03;1.10;;;1.10;;
11042;SDS011;5574;48.786;10.120;2023-05-10T04:28:30;1.80;;;1.30;;
11042;SDS011;5574;48.786;10.120;2023-05-10T04:31:00;1.13;;;1.13;;
11042;SDS011;5574;48.786;10.120;2023-05-10T04:33:27;1.70;;;1.33;;
11042;SDS011;5574;48.786;10.120;2023-05-10T04:35:55;1.45;;;1.40;;
11042;SDS011;5574;48.786;10.120;2023-05-10T04:38:22;1.25;;;1.23;;
11042;SDS011;5574;48.786;10.120;2023-05-10T04:40:49;1.50;;;1.40;;
11042;SDS011;5574;48.786;10.120;2023-05-10T04:43:16;2.15;;;1.67;;
11042;SDS011;5574;48.786;10.120;2023-05-10T04:45:42;1.70;;;1.60;;
11042;SDS011;5574;48.786;10.120;2023-05-10T04:48:09;1.50;;;1.40;;
11042;SDS011;5574;48.786;10.120;2023-05-10T04:50:36;1.52;;;1.42;;
11042;SDS011;5574;48.786;10.120;2023-05-10T04:53:04;1.65;;;1.55;;
11042;SDS011;5574;48.786;10.120;2023-05-10T04:55:31;2.22;;;1.40;;
11042;SDS011;5574;48.786;10.120;2023-05-10T04:57:58;1.60;;;1.60;;
11042;SDS011;5574;48.786;10.120;2023-05-10T05:00:25;3.30;;;1.73;;
11042;SDS011;5574;48.786;10.120;2023-05-10T05:02:52;1.60;;;1.50;;
11042;SDS011;5574;48.786;10.120;2023-05-10T05:05:19;1.60;;;1.33;;
11042;SDS011;5574;48.786;10.120;2023-05-10T05:07:45;1.80;;;1.70;;
11042;SDS011;5574;48.786;10.120;2023-05-10T05:10:13;1.60;;;1.50;;
11042;SDS011;5574;48.786;10.120;2023-05-10T05:12:40;3.70;;;2.17;;
11042;SDS011;5574;48.786;10.120;2023-05-10T05:15:07;2.08;;;1.77;;
11042;SDS011;5574;48.786;10.120;2023-05-10T05:17:34;1.95;;;1.40;;
11042;SDS011;5574;48.786;10.120;2023-05-10T05:20:01;1.90;;;1.40;;
11042;SDS011;5574;48.786;10.120;2023-05-10T05:22:28;1.48;;;1.40;;
11042;SDS011;5574;48.786;10.120;2023-05-10T05:24:56;1.65;;;1.52;;
11042;SDS011;5574;48.786;10.120;2023-05-10T05:27:25;2.65;;;1.58;;
11042;SDS011;5574;48.786;10.120;2023-05-10T05:29:52;1.80;;;1.60;;
11042;SDS011;5574;48.786;10.120;2023-05-10T05:32:19;1.45;;;1.35;;
11042;SDS011;5574;48.786;10.120;2023-05-10T05:34:46;1.40;;;1.30;;
11042;SDS011;5574;48.786;10.120;2023-05-10T05:37:13;1.52;;;1.42;;
11042;SDS011;5574;48.786;10.120;2023-05-10T05:39:40;2.22;;;1.40;;
11042;SDS011;5574;48.786;10.120;2023-05-10T05:42:07;3.10;;;1.20;;
11042;SDS011;5574;48.786;10.120;2023-05-10T05:44:36;2.17;;;1.30;;
11042;SDS011;5574;48.786;10.120;2023-05-10T05:47:03;1.80;;;1.45;;
11042;SDS011;5574;48.786;10.120;2023-05-10T05:49:30;2.42;;;1.52;;
11042;SDS011;5574;48.786;10.120;2023-05-10T05:51:58;2.50;;;1.60;;
11042;SDS011;5574;48.786;10.120;2023-05-10T05:54:25;2.95;;;1.30;;
11042;SDS011;5574;48.786;10.120;2023-05-10T05:56:53;2.30;;;1.40;;
11042;SDS011;5574;48.786;10.120;2023-05-10T05:59:20;1.30;;;1.02;;
11042;SDS011;5574;48.786;10.120;2023-05-10T06:01:48;3.05;;;1.48;;
11042;SDS011;5574;48.786;10.120;2023-05-10T06:04:15;2.55;;;1.30;;
11042;SDS011;5574;48.786;10.120;2023-05-10T06:06:41;2.15;;;1.33;;
11042;SDS011;5574;48.786;10.120;2023-05-10T06:09:08;2.50;;;2.30;;
11042;SDS011;5574;48.786;10.120;2023-05-10T06:11:35;1.50;;;1.40;;
11042;SDS011;5574;48.786;10.120;2023-05-10T06:14:02;3.10;;;1.17;;
11042;SDS011;5574;48.786;10.120;2023-05-10T06:16:29;2.63;;;1.65;;
11042;SDS011;5574;48.786;10.120;2023-05-10T06:18:57;2.38;;;1.27;;
11042;SDS011;5574;48.786;10.120;2023-05-10T06:21:24;2.88;;;1.88;;
11042;SDS011;5574;48.786;10.120;2023-05-10T06:23:50;1.52;;;1.42;;
11042;SDS011;5574;48.786;10.120;2023-05-10T06:26:17;7.97;;;2.20;;
11042;SDS011;5574;48.786;10.120;2023-05-10T06:28:44;1.63;;;1.30;;
11042;SDS011;5574;48.786;10.120;2023-05-10T06:31:10;0.93;;;0.90;;
11042;SDS011;5574;48.786;10.120;2023-05-10T06:33:37;5.55;;;2.25;;
11042;SDS011;5574;48.786;10.120;2023-05-10T06:36:05;1.92;;;1.77;;
11042;SDS011;5574;48.786;10.120;2023-05-10T06:38:32;1.98;;;1.38;;
11042;SDS011;5574;48.786;10.120;2023-05-10T06:40:58;1.88;;;1.77;;
11042;SDS011;5574;48.786;10.120;2023-05-10T06:43:25;1.67;;;1.40;;
11042;SDS011;5574;48.786;10.120;2023-05-10T06:45:53;1.13;;;1.10;;
11042;SDS011;5574;48.786;10.120;2023-05-10T06:48:20;1.30;;;1.20;;
11042;SDS011;5574;48.786;10.120;2023-05-10T06:50:46;1.70;;;1.20;;
11042;SDS011;5574;48.786;10.120;2023-05-10T06:53:14;1.95;;;1.75;;
11042;SDS011;5574;48.786;10.120;2023-05-10T06:55:41;2.45;;;1.48;;
11042;SDS011;5574;48.786;10.120;2023-05-10T06:58:08;1.60;;;1.48;;
11042;SDS011;5574;48.786;10.120;2023-05-10T07:00:35;1.63;;;1.50;;
11042;SDS011;5574;48.786;10.120;2023-05-10T07:03:04;1.73;;;1.63;;
11042;SDS011;5574;48.786;10.120;2023-05-10T07:05:31;1.52;;;1.42;;
11042;SDS011;5574;48.786;10.120;2023-05-10T07:07:57;3.10;;;2.80;;
11042;SDS011;5574;48.786;10.120;2023-05-10T07:10:25;4.93;;;3.55;;
11042;SDS011;5574;48.786;10.120;2023-05-10T07:12:52;1.83;;;1.60;;
11042;SDS011;5574;48.786;10.120;2023-05-10T07:15:19;3.60;;;1.30;;
11042;SDS011;5574;48.786;10.120;2023-05-10T07:17:45;1.42;;;1.30;;
11042;SDS011;5574;48.786;10.120;2023-05-10T07:20:12;5.70;;;1.40;;
11042;SDS011;5574;48.786;10.120;2023-05-10T07:22:39;2.28;;;1.35;;
11042;SDS011;5574;48.786;10.120;2023-05-10T07:25:06;3.00;;;1.30;;
11042;SDS011;5574;48.786;10.120;2023-05-10T07:27:34;1.42;;;1.10;;
11042;SDS011;5574;48.786;10.120;2023-05-10T07:30:01;1.98;;;1.50;;
11042;SDS011;5574;48.786;10.120;2023-05-10T07:32:28;7.28;;;2.58;;
11042;SDS011;5574;48.786;10.120;2023-05-10T07:34:55;2.17;;;1.70;;
11042;SDS011;5574;48.786;10.120;2023-05-10T07:37:22;4.93;;;1.58;;
11042;SDS011;5574;48.786;10.120;2023-05-10T07:39:48;8.52;;;2.17;;
11042;SDS011;5574;48.786;10.120;2023-05-10T07:42:15;4.00;;;1.95;;
11042;SDS011;5574;48.786;10.120;2023-05-10T07:44:43;3.33;;;1.50;;
11042;SDS011;5574;48.786;10.120;2023-05-10T07:47:10;4.20;;;1.80;;
11042;SDS011;5574;48.786;10.120;2023-05-10T07:49:37;10.05;;;1.88;;
11042;SDS011;5574;48.786;10.120;2023-05-10T07:52:03;2.67;;;1.73;;
11042;SDS011;5574;48.786;10.120;2023-05-10T07:54:30;6.55;;;1.85;;
11042;SDS011;5574;48.786;10.120;2023-05-10T07:56:57;3.63;;;1.63;;
11042;SDS011;5574;48.786;10.120;2023-05-10T07:59:24;2.10;;;1.25;;
11042;SDS011;5574;48.786;10.120;2023-05-10T08:01:52;2.47;;;1.60;;
11042;SDS011;5574;48.786;10.120;2023-05-10T08:04:19;2.58;;;1.75;;
11042;SDS011;5574;48.786;10.120;2023-05-10T08:06:46;3.67;;;1.50;;
11042;SDS011;5574;48.786;10.120;2023-05-10T08:09:12;1.90;;;1.63;;
11042;SDS011;5574;48.786;10.120;2023-05-10T08:11:39;4.47;;;2.05;;
11042;SDS011;5574;48.786;10.120;2023-05-10T08:14:06;2.45;;;1.92;;
11042;SDS011;5574;48.786;10.120;2023-05-10T08:16:32;2.00;;;1.80;;
11042;SDS011;5574;48.786;10.120;2023-05-10T08:19:01;4.00;;;1.67;;
11042;SDS011;5574;48.786;10.120;2023-05-10T08:21:27;2.33;;;2.13;;
11042;SDS011;5574;48.786;10.120;2023-05-10T08:23:56;1.95;;;1.70;;
11042;SDS011;5574;48.786;10.120;2023-05-10T08:26:22;3.63;;;1.50;;
11042;SDS011;5574;48.786;10.120;2023-05-10T08:28:49;2.88;;;2.67;;
11042;SDS011;5574;48.786;10.120;2023-05-10T08:31:16;3.63;;;3.08;;
11042;SDS011;5574;48.786;10.120;2023-05-10T08:33:43;1.65;;;1.35;;
11042;SDS011;5574;48.786;10.120;2023-05-10T08:36:11;3.35;;;1.63;;
11042;SDS011;5574;48.786;10.120;2023-05-10T08:38:44;15.63;;;3.40;;
11042;SDS011;5574;48.786;10.120;2023-05-10T08:41:11;5.80;;;2.05;;
11042;SDS011;5574;48.786;10.120;2023-05-10T08:43:38;2.15;;;1.35;;
11042;SDS011;5574;48.786;10.120;2023-05-10T08:46:06;2.15;;;1.83;;
11042;SDS011;5574;48.786;10.120;2023-05-10T08:48:35;2.33;;;1.42;;
11042;SDS011;5574;48.786;10.120;2023-05-10T08:51:03;3.63;;;3.10;;
11042;SDS011;5574;48.786;10.120;2023-05-10T08:53:32;2.80;;;1.85;;
11042;SDS011;5574;48.786;10.120;2023-05-10T08:56:02;1.98;;;1.75;;
11042;SDS011;5574;48.786;10.120;2023-05-10T08:58:30;2.65;;;2.45;;
11042;SDS011;5574;48.786;10.120;2023-05-10T09:00:57;3.58;;;1.50;;
11042;SDS011;5574;48.786;10.120;2023-05-10T09:03:25;2.20;;;1.85;;
11042;SDS011;5574;48.786;10.120;2023-05-10T09:05:52;1.27;;;1.20;;
11042;SDS011;5574;48.786;10.120;2023-05-10T09:08:20;1.80;;;1.70;;
11042;SDS011;5574;48.786;10.120;2023-05-10T09:10:51;1.27;;;1.08;;
11042;SDS011;5574;48.786;10.120;2023-05-10T09:13:18;1.95;;;1.27;;
11042;SDS011;5574;48.786;10.120;2023-05-10T09:15:46;1.17;;;1.08;;
11042;SDS011;5574;48.786;10.120;2023-05-10T09:18:14;2.53;;;0.90;;
11042;SDS011;5574;48.786;10.120;2023-05-10T09:20:40;1.13;;;1.13;;
11042;SDS011;5574;48.786;10.120;2023-05-10T09:23:07;1.08;;;1.00;;
11042;SDS011;5574;48.786;10.120;2023-05-10T09:25:34;1.38;;;1.10;;
11042;SDS011;5574;48.786;10.120;2023-05-10T09:28:06;1.13;;;0.90;;
11042;SDS011;5574;48.786;10.120;2023-05-10T09:30:34;2.60;;;1.33;;
11042;SDS011;5574;48.786;10.120;2023-05-10T09:33:01;1.50;;;1.23;;
11042;SDS011;5574;48.786;10.120;2023-05-10T09:35:28;1.73;;;1.40;;
11042;SDS011;5574;48.786;10.120;2023-05-10T09:37:56;2.45;;;1.85;;
11042;SDS011;5574;48.786;10.120;2023-05-10T09:40:25;1.15;;;1.15;;
11042;SDS011;5574;48.786;10.120;2023-05-10T09:42:53;1.33;;;1.20;;
11042;SDS011;5574;48.786;10.120;2023-05-10T09:45:24;5.22;;;1.10;;
11042;SDS011;5574;48.786;10.120;2023-05-10T09:47:51;3.45;;;0.80;;
11042;SDS011;5574;48.786;10.120;2023-05-10T09:50:18;1.00;;;1.00;;
11042;SDS011;5574;48.786;10.120;2023-05-10T09:52:46;1.00;;;1.00;;
11042;SDS011;5574;48.786;10.120;2023-05-10T09:55:14;1.63;;;1.15;;
11042;SDS011;5574;48.786;10.120;2023-05-10T09:57:41;1.60;;;1.50;;
11042;SDS011;5574;48.786;10.120;2023-05-10T10:00:08;1.17;;;1.00;;
11042;SDS011;5574;48.786;10.120;2023-05-10T10:02:37;1.27;;;1.02;;
11042;SDS011;5574;48.786;10.120;2023-05-10T10:05:06;1.10;;;1.10;;
11042;SDS011;5574;48.786;10.120;2023-05-10T10:07:33;1.15;;;1.10;;
11042;SDS011;5574;48.786;10.120;2023-05-10T10:10:00;1.25;;;1.15;;
11042;SDS011;5574;48.786;10.120;2023-05-10T10:12:27;1.27;;;1.20;;
11042;SDS011;5574;48.786;10.120;2023-05-10T10:14:54;1.33;;;1.20;;
11042;SDS011;5574;48.786;10.120;2023-05-10T10:17:22;2.05;;;1.50;;
11042;SDS011;5574;48.786;10.120;2023-05-10T10:19:52;1.35;;;1.25;;
11042;SDS011;5574;48.786;10.120;2023-05-10T10:22:19;1.40;;;1.30;;
11042;SDS011;5574;48.786;10.120;2023-05-10T10:24:45;1.38;;;1.27;;
11042;SDS011;5574;48.786;10.120;2023-05-10T10:27:15;11.27;;;4.20;;
11042;SDS011;5574;48.786;10.120;2023-05-10T10:29:50;5.63;;;2.72;;
11042;SDS011;5574;48.786;10.120;2023-05-10T10:32:26;4.55;;;2.40;;
11042;SDS011;5574;48.786;10.120;2023-05-10T10:35:03;2.58;;;1.75;;
11042;SDS011;5574;48.786;10.120;2023-05-10T10:37:43;1.60;;;1.50;;
11042;SDS011;5574;48.786;10.120;2023-05-10T10:40:23;2.08;;;1.70;;
11042;SDS011;5574;48.786;10.120;2023-05-10T10:42:51;2.88;;;2.10;;
11042;SDS011;5574;48.786;10.120;2023-05-10T10:45:19;1.45;;;1.35;;
11042;SDS011;5574;48.786;10.120;2023-05-10T10:47:47;3.53;;;1.23;;
11042;SDS011;5574;48.786;10.120;2023-05-10T10:50:16;1.98;;;1.50;;
11042;SDS011;5574;48.786;10.120;2023-05-10T10:52:42;2.78;;;1.20;;
11042;SDS011;5574;48.786;10.120;2023-05-10T10:55:10;1.85;;;1.40;;
11042;SDS011;5574;48.786;10.120;2023-05-10T10:57:42;3.33;;;1.40;;
11042;SDS011;5574;48.786;10.120;2023-05-10T11:00:18;1.67;;;1.40;;
11042;SDS011;5574;48.786;10.120;2023-05-10T11:02:47;1.55;;;1.45;;
11042;SDS011;5574;48.786;10.120;2023-05-10T11:05:35;1.35;;;1.35;;
11042;SDS011;5574;48.786;10.120;2023-05-10T11:08:07;2.40;;;1.48;;
11042;SDS011;5574;48.786;10.120;2023-05-10T11:10:51;1.40;;;1.30;;
11042;SDS011;5574;48.786;10.120;2023-05-10T11:13:28;1.20;;;1.20;;
11042;SDS011;5574;48.786;10.120;2023-05-10T11:15:56;1.10;;;1.10;;
11042;SDS011;5574;48.786;10.120;2023-05-10T11:18:24;1.08;;;1.05;;
11042;SDS011;5574;48.786;10.120;2023-05-10T11:20:55;1.65;;;1.30;;
11042;SDS011;5574;48.786;10.120;2023-05-10T11:23:28;1.67;;;1.40;;
11042;SDS011;5574;48.786;10.120;2023-05-10T11:25:56;1.73;;;1.30;;
11042;SDS011;5574;48.786;10.120;2023-05-10T11:28:23;1.55;;;1.27;;
11042;SDS011;5574;48.786;10.120;2023-05-10T11:30:51;1.48;;;1.05;;
11042;SDS011;5574;48.786;10.120;2023-05-10T11:33:19;1.20;;;1.10;;
11042;SDS011;5574;48.786;10.120;2023-05-10T11:35:46;1.27;;;1.17;;
11042;SDS011;5574;48.786;10.120;2023-05-10T11:38:14;1.38;;;1.10;;
11042;SDS011;5574;48.786;10.120;2023-05-10T11:40:41;1.50;;;1.27;;
11042;SDS011;5574;48.786;10.120;2023-05-10T11:43:08;1.73;;;1.40;;
11042;SDS011;5574;48.786;10.120;2023-05-10T11:45:35;1.35;;;1.00;;
11042;SDS011;5574;48.786;10.120;2023-05-10T11:48:02;1.05;;;1.00;;
11042;SDS011;5574;48.786;10.120;2023-05-10T11:50:29;0.80;;;0.80;;
11042;SDS011;5574;48.786;10.120;2023-05-10T11:52:56;0.80;;;0.80;;
11042;SDS011;5574;48.786;10.120;2023-05-10T11:55:25;0.80;;;0.80;;
11042;SDS011;5574;48.786;10.120;2023-05-10T11:57:52;1.95;;;1.20;;
11042;SDS011;5574;48.786;10.120;2023-05-10T12:00:19;0.88;;;0.88;;
11042;SDS011;5574;48.786;10.120;2023-05-10T12:02:46;1.20;;;1.10;;
11042;SDS011;5574;48.786;10.120;2023-05-10T12:05:13;1.00;;;1.00;;
11042;SDS011;5574;48.786;10.120;2023-05-10T12:07:40;2.50;;;0.90;;
11042;SDS011;5574;48.786;10.120;2023-05-10T12:10:07;2.88;;;1.23;;
11042;SDS011;5574;48.786;10.120;2023-05-10T12:12:38;1.13;;;1.13;;
11042;SDS011;5574;48.786;10.120;2023-05-10T12:15:07;2.50;;;1.00;;
11042;SDS011;5574;48.786;10.120;2023-05-10T12:17:37;2.53;;;1.00;;
11042;SDS011;5574;48.786;10.120;2023-05-10T12:20:17;0.77;;;0.77;;
11042;SDS011;5574;48.786;10.120;2023-05-10T12:22:46;1.67;;;1.15;;
11042;SDS011;5574;48.786;10.120;2023-05-10T12:25:15;1.13;;;0.90;;
11042;SDS011;5574;48.786;10.120;2023-05-10T12:27:48;2.95;;;1.27;;
11042;SDS011;5574;48.786;10.120;2023-05-10T12:30:20;2.08;;;1.30;;
11042;SDS011;5574;48.786;10.120;2023-05-10T12:32:47;2.05;;;1.23;;
11042;SDS011;5574;48.786;10.120;2023-05-10T12:35:14;3.10;;;1.23;;
11042;SDS011;5574;48.786;10.120;2023-05-10T12:37:41;1.30;;;1.20;;
11042;SDS011;5574;48.786;10.120;2023-05-10T12:40:09;2.05;;;1.40;;
11042;SDS011;5574;48.786;10.120;2023-05-10T12:42:37;2.00;;;1.67;;
11042;SDS011;5574;48.786;10.120;2023-05-10T12:45:07;3.38;;;1.75;;
11042;SDS011;5574;48.786;10.120;2023-05-10T12:47:34;1.80;;;1.63;;
11042;SDS011;5574;48.786;10.120;2023-05-10T12:50:01;2.55;;;1.60;;
11042;SDS011;5574;48.786;10.120;2023-05-10T12:52:29;1.50;;;1.40;;
11042;SDS011;5574;48.786;10.120;2023-05-10T12:54:57;1.92;;;1.33;;
11042;SDS011;5574;48.786;10.120;2023-05-10T12:57:23;1.38;;;1.27;;
11042;SDS011;5574;48.786;10.120;2023-05-10T12:59:50;2.03;;;1.48;;
11042;SDS011;5574;48.786;10.120;2023-05-10T13:02:18;2.08;;;1.30;;
11042;SDS011;5574;48.786;10.120;2023-05-10T13:04:46;2.47;;;1.23;;
11042;SDS011;5574;48.786;10.120;2023-05-10T13:07:12;2.38;;;1.60;;
11042;SDS011;5574;48.786;10.120;2023-05-10T13:09:39;2.00;;;1.52;;
11042;SDS011;5574;48.786;10.120;2023-05-10T13:12:06;1.50;;;1.40;;
11042;SDS011;5574;48.786;10.120;2023-05-10T13:14:33;1.48;;;1.30;;
11042;SDS011;5574;48.786;10.120;2023-05-10T13:16:59;1.25;;;1.08;;
11042;SDS011;5574;48.786;10.120;2023-05-10T13:19:28;1.38;;;1.27;;
11042;SDS011;5574;48.786;10.120;2023-05-10T13:21:54;1.40;;;1.30;;
11042;SDS011;5574;48.786;10.120;2023-05-10T13:24:21;3.30;;;1.65;;
11042;SDS011;5574;48.786;10.120;2023-05-10T13:26:47;1.73;;;1.63;;
11042;SDS011;5574;48.786;10.120;2023-05-10T13:29:14;1.38;;;1.27;;
11042;SDS011;5574;48.786;10.120;2023-05-10T13:31:43;2.83;;;1.80;;
11042;SDS011;5574;48.786;10.120;2023-05-10T13:34:09;1.70;;;1.60;;
11042;SDS011;5574;48.786;10.120;2023-05-10T13:36:37;1.40;;;1.30;;
11042;SDS011;5574;48.786;10.120;2023-05-10T13:39:04;4.82;;;1.20;;
11042;SDS011;5574;48.786;10.120;2023-05-10T13:41:31;1.40;;;1.30;;
11042;SDS011;5574;48.786;10.120;2023-05-10T13:43:58;1.63;;;1.20;;
11042;SDS011;5574;48.786;10.120;2023-05-10T13:46:24;3.47;;;1.23;;
11042;SDS011;5574;48.786;10.120;2023-05-10T13:48:51;1.30;;;1.20;;
11042;SDS011;5574;48.786;10.120;2023-05-10T13:51:19;1.10;;;1.10;;
11042;SDS011;5574;48.786;10.120;2023-05-10T13:53:47;3.08;;;1.27;;
11042;SDS011;5574;48.786;10.120;2023-05-10T13:56:13;1.20;;;1.10;;
11042;SDS011;5574;48.786;10.120;2023-05-10T13:58:40;2.15;;;1.23;;
11042;SDS011;5574;48.786;10.120;2023-05-10T14:01:07;1.73;;;1.30;;
11042;SDS011;5574;48.786;10.120;2023-05-10T14:03:34;3.97;;;2.92;;
11042;SDS011;5574;48.786;10.120;2023-05-10T14:06:00;1.55;;;1.45;;
11042;SDS011;5574;48.786;10.120;2023-05-10T14:08:27;2.30;;;1.20;;
11042;SDS011;5574;48.786;10.120;2023-05-10T14:10:55;1.10;;;0.90;;
11042;SDS011;5574;48.786;10.120;2023-05-10T14:13:23;1.13;;;1.02;;
11042;SDS011;5574;48.786;10.120;2023-05-10T14:15:50;0.90;;;0.90;;
11042;SDS011;5574;48.786;10.120;2023-05-10T14:18:18;1.95;;;1.30;;
11042;SDS011;5574;48.786;10.120;2023-05-10T14:20:45;0.90;;;0.90;;
11042;SDS011;5574;48.786;10.120;2023-05-10T14:23:12;2.65;;;1.20;;
11042;SDS011;5574;48.786;10.120;2023-05-10T14:25:39;4.55;;;1.60;;
11042;SDS011;5574;48.786;10.120;2023-05-10T14:28:07;1.33;;;1.13;;
11042;SDS011;5574;48.786;10.120;2023-05-10T14:30:34;1.95;;;1.27;;
11042;SDS011;5574;48.786;10.120;2023-05-10T14:33:01;2.50;;;1.25;;
11042;SDS011;5574;48.786;10.120;2023-05-10T14:35:28;1.95;;;1.08;;
11042;SDS011;5574;48.786;10.120;2023-05-10T14:37:56;1.95;;;1.10;;
11042;SDS011;5574;48.786;10.120;2023-05-10T14:40:22;1.73;;;1.17;;
11042;SDS011;5574;48.786;10.120;2023-05-10T14:42:49;2.55;;;1.60;;
11042;SDS011;5574;48.786;10.120;2023-05-10T14:45:19;1.30;;;1.20;;
11042;SDS011;5574;48.786;10.120;2023-05-10T14:47:46;1.30;;;1.20;;
11042;SDS011;5574;48.786;10.120;2023-05-10T14:50:13;3.10;;;1.50;;
11042;SDS011;5574;48.786;10.120;2023-05-10T14:52:39;1.27;;;1.27;;
11042;SDS011;5574;48.786;10.120;2023-05-10T14:55:07;2.00;;;1.33;;
11042;SDS011;5574;48.786;10.120;2023-05-10T14:57:34;1.40;;;0.90;;
11042;SDS011;5574;48.786;10.120;2023-05-10T15:00:01;1.48;;;1.38;;
11042;SDS011;5574;48.786;10.120;2023-05-10T15:02:30;1.45;;;1.25;;
11042;SDS011;5574;48.786;10.120;2023-05-10T15:04:56;2.42;;;1.25;;